Time;durP1;ratioP1;P1;durP2;ratioP2;P2;SDS_P1;SDS_P2;PMS_P1;PMS_P2;Temp;Humidity;BMP_temperature;BMP_pressure;BME280_temperature;BME280_humidity;BME280_pressure;Samples;Min_cycle;Max_cycle;Signal;HPM_P1;HPM_P2
2022/12/09 00:01:40;;;;;;;19.05;9.45;;;2.80;99.90;;;;;;6186130;23;20056;-94
2022/12/09 00:04:06;;;;;;;18.75;8.65;;;2.80;99.90;;;;;;6185694;23;20024;-94
2022/12/09 00:06:32;;;;;;;17.63;8.23;;;2.80;99.90;;;;;;6210621;23;20111;-93
2022/12/09 00:08:58;;;;;;;18.70;8.75;;;2.80;99.90;;;;;;6159809;23;20054;-95
2022/12/09 00:11:24;;;;;;;20.77;8.45;;;2.80;99.90;;;;;;6186460;23;20005;-94
2022/12/09 00:13:51;;;;;;;18.52;9.23;;;2.80;99.90;;;;;;6186512;23;20004;-93
2022/12/09 00:16:18;;;;;;;19.63;8.43;;;2.80;99.90;;;;;;6186904;23;20005;-94
2022/12/09 00:18:44;;;;;;;20.33;8.80;;;2.80;99.90;;;;;;6212573;23;20021;-94
2022/12/09 00:21:32;;;;;;;17.75;8.00;;;2.80;99.90;;;;;;6186831;23;20020;-93
2022/12/09 00:24:00;;;;;;;17.80;8.27;;;2.80;99.90;;;;;;6187488;23;20025;-93
2022/12/09 00:26:27;;;;;;;17.38;8.13;;;2.70;99.90;;;;;;6187179;23;20005;-94
2022/12/09 00:28:54;;;;;;;16.85;8.90;;;2.70;99.90;;;;;;6162306;23;20001;-94
2022/12/09 00:31:23;;;;;;;17.92;8.65;;;2.70;99.90;;;;;;6187039;23;20012;-93
2022/12/09 00:33:50;;;;;;;18.52;9.00;;;2.70;99.90;;;;;;6187158;23;20001;-94
2022/12/09 00:36:18;;;;;;;17.20;7.88;;;2.70;99.90;;;;;;6211544;23;20029;-94
2022/12/09 00:38:45;;;;;;;20.20;8.93;;;2.70;99.90;;;;;;6187587;23;20001;-93
2022/12/09 00:41:11;;;;;;;17.73;7.68;;;2.70;99.90;;;;;;6185230;23;20001;-93
2022/12/09 00:43:38;;;;;;;19.63;8.35;;;2.70;99.90;;;;;;6142642;23;20013;-93
2022/12/09 00:46:04;;;;;;;19.88;9.23;;;2.60;99.90;;;;;;6187244;23;20009;-93
2022/12/09 00:48:33;;;;;;;19.73;9.93;;;2.60;99.90;;;;;;6187882;23;20040;-94
2022/12/09 00:51:00;;;;;;;19.65;9.10;;;2.60;99.90;;;;;;6136544;23;20017;-93
2022/12/09 00:53:26;;;;;;;20.58;9.15;;;2.60;99.90;;;;;;6161865;23;20045;-94
2022/12/09 00:55:51;;;;;;;18.17;8.73;;;2.60;99.90;;;;;;6136548;23;20009;-93
2022/12/09 00:58:17;;;;;;;17.23;7.80;;;2.60;99.90;;;;;;6188401;23;20088;-94
2022/12/09 01:00:43;;;;;;;19.90;8.88;;;2.60;99.90;;;;;;6162006;23;20076;-95
2022/12/09 01:03:16;;;;;;;19.05;9.23;;;2.60;99.90;;;;;;6186922;23;20013;-92
2022/12/09 01:05:43;;;;;;;17.55;8.55;;;2.60;99.90;;;;;;6161303;23;20013;-93
2022/12/09 01:08:09;;;;;;;21.65;9.85;;;2.60;99.90;;;;;;6161140;23;20013;-93
2022/12/09 01:10:36;;;;;;;18.70;8.80;;;2.60;99.90;;;;;;6162200;23;20036;-93
2022/12/09 01:13:02;;;;;;;19.88;8.77;;;2.50;99.90;;;;;;6161888;23;20008;-93
2022/12/09 01:15:29;;;;;;;18.55;8.52;;;2.60;99.90;;;;;;6172998;23;20431;-93
2022/12/09 01:17:56;;;;;;;19.27;8.73;;;2.50;99.90;;;;;;6192857;23;20009;-93
2022/12/09 01:20:22;;;;;;;18.65;8.52;;;2.50;99.90;;;;;;6187701;23;20048;-95
2022/12/09 01:22:48;;;;;;;21.85;9.30;;;2.50;99.90;;;;;;6187744;23;20017;-94
2022/12/09 01:25:14;;;;;;;16.70;8.07;;;2.40;99.90;;;;;;6162995;23;20343;-94
2022/12/09 01:27:40;;;;;;;18.40;8.32;;;2.40;99.90;;;;;;6141137;23;20012;-94
2022/12/09 01:30:08;;;;;;;18.63;9.35;;;2.30;99.90;;;;;;6161923;23;20017;-94
2022/12/09 01:32:33;;;;;;;19.88;9.15;;;2.30;99.90;;;;;;6188048;23;20025;-92
2022/12/09 01:35:03;;;;;;;16.60;7.97;;;2.20;99.90;;;;;;6140176;23;20009;-93
2022/12/09 01:37:31;;;;;;;16.95;7.57;;;2.10;99.90;;;;;;6169257;23;20019;-93
2022/12/09 01:39:57;;;;;;;18.65;7.63;;;2.00;99.90;;;;;;6170024;23;20013;-94
2022/12/09 01:42:25;;;;;;;19.73;8.10;;;2.00;99.90;;;;;;6163762;23;20028;-94
2022/12/09 01:45:19;;;;;;;17.83;7.70;;;1.90;99.90;;;;;;6166593;23;20009;-93
2022/12/09 01:48:07;;;;;;;19.73;7.57;;;1.80;99.90;;;;;;6198518;23;20024;-94
2022/12/09 01:50:35;;;;;;;16.77;7.38;;;1.70;99.90;;;;;;6197553;23;20016;-93
2022/12/09 01:53:01;;;;;;;16.75;7.68;;;1.60;99.90;;;;;;6136139;23;20020;-95
2022/12/09 01:55:26;;;;;;;18.73;8.27;;;1.50;99.90;;;;;;6164423;23;20009;-95
2022/12/09 01:57:52;;;;;;;15.73;7.43;;;1.40;99.90;;;;;;6136305;23;20017;-93
2022/12/09 02:00:19;;;;;;;19.20;8.45;;;1.30;99.90;;;;;;6185021;23;20009;-95
2022/12/09 02:02:47;;;;;;;19.00;9.35;;;1.30;99.90;;;;;;6159144;23;20367;-94
2022/12/09 02:05:13;;;;;;;17.52;9.02;;;1.20;99.90;;;;;;6185546;23;20020;-94
2022/12/09 02:07:39;;;;;;;19.00;8.57;;;1.20;99.90;;;;;;6135220;23;20013;-94
2022/12/09 02:10:11;;;;;;;18.23;8.52;;;1.20;99.90;;;;;;6159446;23;20450;-94
2022/12/09 02:12:40;;;;;;;;;;;1.20;99.90;;;;;;6135484;23;20017;-94
2022/12/09 02:15:16;;;;;;;19.13;9.18;;;1.10;99.90;;;;;;6183853;23;19912;-94
2022/12/09 02:17:56;;;;;;;19.92;9.02;;;1.10;99.90;;;;;;6158953;23;20070;-94
2022/12/09 02:20:40;;;;;;;19.90;9.25;;;1.00;99.90;;;;;;6184871;23;20013;-94
2022/12/09 02:23:23;;;;;;;20.88;8.77;;;1.00;99.90;;;;;;6158920;23;20013;-94
2022/12/09 02:26:04;;;;;;;18.48;8.48;;;1.00;99.90;;;;;;6183415;23;20020;-94
2022/12/09 02:28:45;;;;;;;18.10;8.37;;;1.00;99.90;;;;;;6159600;23;20343;-94
2022/12/09 02:31:26;;;;;;;18.17;8.70;;;1.00;99.90;;;;;;6158686;23;20287;-94
2022/12/09 02:34:20;;;;;;;20.08;8.35;;;1.10;99.90;;;;;;6158988;23;20013;-93
2022/12/09 02:37:07;;;;;;;16.50;7.25;;;1.10;99.90;;;;;;6131592;23;20013;-94
2022/12/09 02:40:05;;;;;;;19.50;8.48;;;1.10;99.90;;;;;;6135271;23;20064;-94
2022/12/09 02:42:34;;;;;;;20.52;9.35;;;1.20;99.90;;;;;;6150995;23;20013;-95
2022/12/09 02:45:03;;;;;;;17.38;7.32;;;1.20;99.90;;;;;;6133538;23;20039;-95
2022/12/09 02:47:31;;;;;;;18.85;9.13;;;1.20;99.90;;;;;;6158472;23;20009;-95
2022/12/09 02:50:00;;;;;;;21.00;8.95;;;1.30;99.90;;;;;;6134805;23;20005;-94
2022/12/09 02:52:28;;;;;;;18.60;9.15;;;1.30;99.90;;;;;;6183821;23;20013;-95
2022/12/09 02:54:54;;;;;;;21.88;9.32;;;1.30;99.90;;;;;;6136516;23;20104;-95
2022/12/09 02:57:25;;;;;;;20.67;9.18;;;1.30;99.90;;;;;;6188173;23;20009;-94
2022/12/09 02:59:51;;;;;;;23.73;9.68;;;1.30;99.90;;;;;;6135133;23;20020;-96
2022/12/09 03:02:24;;;;;;;18.23;8.88;;;1.30;99.90;;;;;;6159706;23;20049;-95
2022/12/09 03:05:05;;;;;;;22.13;9.23;;;1.40;99.90;;;;;;6159610;23;20044;-92
2022/12/09 03:07:42;;;;;;;22.83;9.57;;;1.40;99.90;;;;;;6185038;23;20024;-93
2022/12/09 03:10:31;;;;;;;20.50;9.77;;;1.40;99.90;;;;;;6159051;23;20017;-94
2022/12/09 03:13:15;;;;;;;22.67;9.20;;;1.40;99.90;;;;;;6158572;23;20024;-93
2022/12/09 03:15:48;;;;;;;21.30;8.68;;;1.40;99.90;;;;;;6163491;23;20546;-93
2022/12/09 03:18:16;;;;;;;20.13;8.70;;;1.40;99.90;;;;;;6171590;23;20503;-92
2022/12/09 03:20:44;;;;;;;20.05;9.45;;;1.50;99.90;;;;;;6162999;23;20052;-93
2022/12/09 03:23:14;;;;;;;20.85;9.65;;;1.50;99.90;;;;;;6160008;23;20017;-93
2022/12/09 03:25:44;;;;;;;18.85;9.23;;;1.50;99.90;;;;;;6186829;23;20017;-93
2022/12/09 03:28:39;;;;;;;16.77;7.30;;;1.50;99.90;;;;;;6185445;23;20041;-93
2022/12/09 03:31:11;;;;;;;22.45;9.13;;;1.50;99.90;;;;;;6157972;23;20024;-93
2022/12/09 03:33:39;;;;;;;21.13;9.30;;;1.50;99.90;;;;;;6137740;23;20044;-94
2022/12/09 03:36:06;;;;;;;20.15;9.27;;;1.50;99.90;;;;;;6186466;23;20013;-92
2022/12/09 03:38:37;;;;;;;18.55;8.55;;;1.50;99.90;;;;;;6161801;23;20236;-94
2022/12/09 03:41:09;;;;;;;20.27;9.53;;;1.50;99.90;;;;;;6136394;23;20032;-93
2022/12/09 03:43:42;;;;;;;19.45;8.65;;;1.50;99.90;;;;;;6161491;23;20013;-94
2022/12/09 03:46:07;;;;;;;23.33;9.88;;;1.50;99.90;;;;;;6162414;23;20013;-93
2022/12/09 03:48:33;;;;;;;21.73;10.23;;;1.50;99.90;;;;;;6161673;23;20075;-94
2022/12/09 03:51:06;;;;;;;25.02;10.55;;;1.50;99.90;;;;;;6161842;23;20485;-94
2022/12/09 03:53:34;;;;;;;22.48;9.65;;;1.40;99.90;;;;;;6137046;23;20106;-93
2022/12/09 03:56:21;;;;;;;19.90;9.68;;;1.40;99.90;;;;;;6160145;23;20023;-93
2022/12/09 03:58:52;;;;;;;20.02;8.77;;;1.40;99.90;;;;;;6186085;23;20067;-94
2022/12/09 04:01:18;;;;;;;20.08;8.38;;;1.40;99.90;;;;;;6161775;23;20103;-95
2022/12/09 04:03:46;;;;;;;19.55;8.73;;;1.40;99.90;;;;;;6136845;23;20013;-94
2022/12/09 04:06:12;;;;;;;20.60;9.68;;;1.30;99.90;;;;;;6161434;23;20076;-94
2022/12/09 04:08:38;;;;;;;19.70;8.55;;;1.30;99.90;;;;;;6136965;23;20028;-95
2022/12/09 04:11:03;;;;;;;22.65;10.65;;;1.30;99.90;;;;;;6136394;23;20024;-94
2022/12/09 04:13:29;;;;;;;19.42;9.07;;;1.30;99.90;;;;;;6161563;23;20021;-93
2022/12/09 04:15:55;;;;;;;23.30;10.60;;;1.30;99.90;;;;;;6161632;23;20009;-93
2022/12/09 04:18:20;;;;;;;19.83;9.23;;;1.30;99.90;;;;;;6187028;23;20044;-93
2022/12/09 04:20:46;;;;;;;23.77;9.68;;;1.30;99.90;;;;;;6137169;23;20013;-94
2022/12/09 04:23:12;;;;;;;21.33;8.85;;;1.30;99.90;;;;;;6137273;23;20394;-94
2022/12/09 04:25:37;;;;;;;20.95;8.45;;;1.20;99.90;;;;;;6160656;23;20017;-94
2022/12/09 04:28:03;;;;;;;18.30;8.82;;;1.20;99.90;;;;;;6161205;23;20087;-94
2022/12/09 04:30:29;;;;;;;21.38;10.00;;;1.10;99.90;;;;;;6186566;23;20522;-94
2022/12/09 04:32:55;;;;;;;20.75;8.45;;;1.10;99.90;;;;;;6136858;23;20009;-93
2022/12/09 04:35:21;;;;;;;20.33;8.35;;;1.00;99.90;;;;;;6161992;23;20033;-93
2022/12/09 04:37:47;;;;;;;20.08;8.27;;;0.90;99.90;;;;;;6162360;23;20013;-94
2022/12/09 04:40:13;;;;;;;20.60;9.20;;;0.80;99.90;;;;;;6161841;23;20111;-94
2022/12/09 04:42:39;;;;;;;19.73;8.82;;;0.80;99.90;;;;;;6138078;23;20009;-93
2022/12/09 04:45:05;;;;;;;18.77;8.30;;;0.70;99.90;;;;;;6137596;23;20017;-94
2022/12/09 04:47:32;;;;;;;20.20;8.45;;;0.60;99.90;;;;;;6187300;23;20013;-93
2022/12/09 04:49:58;;;;;;;17.67;7.43;;;0.50;99.90;;;;;;6137720;23;20017;-93
2022/12/09 04:52:23;;;;;;;16.27;7.03;;;0.50;99.90;;;;;;6162787;23;20543;-94
2022/12/09 04:54:49;;;;;;;20.15;8.65;;;0.40;99.90;;;;;;6171763;23;20044;-93
2022/12/09 04:57:16;;;;;;;17.95;8.35;;;0.40;99.90;;;;;;6186999;23;20029;-94
2022/12/09 04:59:41;;;;;;;18.77;7.88;;;0.30;99.90;;;;;;6186419;23;20056;-94
2022/12/09 05:02:07;;;;;;;21.15;9.20;;;0.30;99.90;;;;;;6186458;23;20012;-95
2022/12/09 05:04:32;;;;;;;20.67;8.70;;;0.20;99.90;;;;;;6211020;23;20064;-94
2022/12/09 05:06:58;;;;;;;19.98;9.15;;;0.20;99.90;;;;;;6186164;23;20024;-94
2022/12/09 05:09:24;;;;;;;18.50;8.57;;;0.20;99.90;;;;;;6186696;23;20037;-94
2022/12/09 05:11:50;;;;;;;18.95;7.30;;;0.20;99.90;;;;;;6161020;23;20069;-94
2022/12/09 05:14:16;;;;;;;19.48;7.93;;;0.20;99.90;;;;;;6185825;23;20008;-93
2022/12/09 05:16:42;;;;;;;19.33;8.18;;;0.20;99.90;;;;;;6161377;23;20025;-94
2022/12/09 05:19:08;;;;;;;17.38;7.70;;;0.20;99.90;;;;;;6160976;23;20025;-92
2022/12/09 05:21:34;;;;;;;18.85;7.78;;;0.10;99.90;;;;;;6185128;23;20020;-93
2022/12/09 05:24:01;;;;;;;18.55;7.85;;;0.20;99.90;;;;;;6154603;23;20021;-95
2022/12/09 05:26:27;;;;;;;18.67;7.25;;;0.00;99.90;;;;;;6160732;23;20009;-94
2022/12/09 05:28:53;;;;;;;16.30;7.50;;;0.00;99.90;;;;;;6185006;23;20013;-94
2022/12/09 05:31:21;;;;;;;24.35;8.90;;;0.00;99.90;;;;;;6206926;23;20028;-93
2022/12/09 05:33:48;;;;;;;19.70;8.15;;;0.00;99.90;;;;;;6171356;23;20021;-93
2022/12/09 05:36:17;;;;;;;18.05;7.40;;;0.00;99.90;;;;;;6198304;23;20008;-93
2022/12/09 05:38:42;;;;;;;19.35;7.65;;;-0.10;99.90;;;;;;6168852;23;20028;-93
2022/12/09 05:41:08;;;;;;;20.05;8.88;;;0.10;99.90;;;;;;6191945;23;20004;-92
2022/12/09 05:43:35;;;;;;;23.20;9.38;;;-0.10;99.90;;;;;;6176173;23;20005;-94
2022/12/09 05:46:02;;;;;;;21.95;8.95;;;-0.10;99.90;;;;;;6146957;23;20019;-91
2022/12/09 05:48:28;;;;;;;20.27;8.23;;;-0.10;99.90;;;;;;6167866;23;20043;-93
2022/12/09 05:51:16;;;;;;;16.77;7.80;;;-0.20;99.90;;;;;;6139960;23;20017;-91
2022/12/09 05:53:41;;;;;;;18.55;8.20;;;-0.20;99.90;;;;;;6195087;23;20037;-88
2022/12/09 05:56:07;;;;;;;17.70;6.40;;;-0.20;99.90;;;;;;6163144;23;20024;-89
2022/12/09 05:58:33;;;;;;;16.02;6.80;;;-0.20;99.90;;;;;;6190322;23;20009;-89
2022/12/09 06:01:06;;;;;;;20.13;8.40;;;-0.30;99.90;;;;;;6163345;23;20051;-89
2022/12/09 06:03:32;;;;;;;21.48;9.65;;;-0.20;99.90;;;;;;6135550;23;20096;-89
2022/12/09 06:05:58;;;;;;;21.90;8.95;;;-0.20;99.90;;;;;;6156343;23;20020;-89
2022/12/09 06:08:23;;;;;;;23.27;10.25;;;-0.20;99.90;;;;;;6157465;23;20031;-89
2022/12/09 06:10:49;;;;;;;22.88;9.25;;;-0.10;99.90;;;;;;6181114;23;20020;-89
2022/12/09 06:13:15;;;;;;;23.17;7.97;;;-0.10;99.90;;;;;;6155448;23;20021;-89
2022/12/09 06:15:41;;;;;;;19.40;8.70;;;-0.10;99.90;;;;;;6156655;23;20031;-89
2022/12/09 06:18:06;;;;;;;27.00;11.18;;;-0.20;99.90;;;;;;6156203;23;20020;-88
2022/12/09 06:20:32;;;;;;;22.17;8.57;;;-0.20;99.90;;;;;;6183752;23;20013;-87
2022/12/09 06:22:58;;;;;;;21.63;8.40;;;-0.20;99.90;;;;;;6181214;23;20009;-88
2022/12/09 06:25:23;;;;;;;22.10;8.60;;;-0.30;99.90;;;;;;6183908;23;20009;-89
2022/12/09 06:27:51;;;;;;;19.92;8.55;;;-0.30;99.90;;;;;;6183326;23;20009;-87
2022/12/09 06:30:16;;;;;;;19.80;7.90;;;-0.30;99.90;;;;;;6131944;23;20024;-89
2022/12/09 06:32:42;;;;;;;27.75;10.13;;;-0.40;99.90;;;;;;6156239;23;20017;-89
2022/12/09 06:35:08;;;;;;;19.08;8.52;;;-0.30;99.90;;;;;;6157214;23;20021;-88
2022/12/09 06:37:33;;;;;;;22.95;9.32;;;-0.30;99.90;;;;;;6157626;23;20017;-88
2022/12/09 06:39:59;;;;;;;23.15;9.18;;;-0.40;99.90;;;;;;6157045;23;20339;-89
2022/12/09 06:42:25;;;;;;;24.42;9.95;;;-0.40;99.90;;;;;;6161179;23;20020;-87
2022/12/09 06:44:50;;;;;;;22.58;9.63;;;-0.40;99.90;;;;;;6136252;23;20463;-88
2022/12/09 06:47:16;;;;;;;23.42;10.77;;;-0.40;99.90;;;;;;6186250;23;20470;-88
2022/12/09 06:49:42;;;;;;;20.45;8.90;;;-0.40;99.90;;;;;;6134109;23;20107;-89
2022/12/09 06:52:08;;;;;;;22.23;8.85;;;-0.40;99.90;;;;;;6189940;23;20060;-88
2022/12/09 06:54:33;;;;;;;20.92;7.82;;;-0.40;99.90;;;;;;6162894;23;20339;-88
2022/12/09 06:56:59;;;;;;;18.63;8.23;;;-0.40;99.90;;;;;;6171037;23;20013;-89
2022/12/09 06:59:25;;;;;;;18.92;7.85;;;-0.50;99.90;;;;;;6202571;23;20013;-88
2022/12/09 07:01:51;;;;;;;20.83;8.20;;;-0.50;99.90;;;;;;6178204;23;20012;-88
2022/12/09 07:04:16;;;;;;;19.50;8.65;;;-0.60;99.90;;;;;;6181990;23;20053;-89
2022/12/09 07:06:44;;;;;;;23.13;8.98;;;-0.60;99.90;;;;;;6196798;23;20064;-89
2022/12/09 07:09:17;;;;;;;20.45;8.40;;;-0.60;99.90;;;;;;6161846;23;20021;-90
2022/12/09 07:11:45;;;;;;;21.63;9.00;;;-0.70;99.90;;;;;;6160333;23;20025;-90
2022/12/09 07:14:12;;;;;;;22.13;8.48;;;-0.70;99.90;;;;;;6159127;23;20009;-91
2022/12/09 07:16:38;;;;;;;18.48;8.05;;;-0.80;99.90;;;;;;6158533;23;20021;-91
2022/12/09 07:19:04;;;;;;;21.20;9.25;;;-0.70;99.90;;;;;;6135701;23;20017;-91
2022/12/09 07:21:30;;;;;;;18.10;8.02;;;-0.70;99.90;;;;;;6166499;23;20028;-91
2022/12/09 07:23:59;;;;;;;23.85;9.23;;;-0.80;99.90;;;;;;6162356;23;20017;-91
2022/12/09 07:26:25;;;;;;;21.33;8.98;;;-0.80;99.90;;;;;;6158827;23;20020;-88
2022/12/09 07:28:51;;;;;;;20.88;7.93;;;-0.80;99.90;;;;;;6182568;23;20048;-93
2022/12/09 07:31:19;;;;;;;19.98;8.13;;;-0.80;99.90;;;;;;6186429;23;20029;-91
2022/12/09 07:33:46;;;;;;;24.38;9.68;;;-0.90;99.90;;;;;;6186470;23;20040;-92
2022/12/09 07:36:12;;;;;;;26.02;9.15;;;-0.80;99.90;;;;;;6161004;23;20016;-93
2022/12/09 07:38:37;;;;;;;22.17;9.73;;;-0.90;99.90;;;;;;6160734;23;20040;-92
2022/12/09 07:41:05;;;;;;;21.15;8.65;;;-0.80;99.90;;;;;;6161366;23;20020;-92
2022/12/09 07:43:35;;;;;;;23.77;10.98;;;-0.90;99.90;;;;;;6161122;23;20366;-92
2022/12/09 07:46:05;;;;;;;22.38;9.23;;;-0.90;99.90;;;;;;6161090;23;20234;-92
2022/12/09 07:48:34;;;;;;;24.40;10.13;;;-0.90;99.90;;;;;;6168568;23;20009;-90
2022/12/09 07:51:03;;;;;;;20.67;9.05;;;-0.90;99.90;;;;;;6163710;23;20073;-91
2022/12/09 07:53:30;;;;;;;24.77;9.52;;;-0.90;99.90;;;;;;6169001;23;20021;-92
2022/12/09 07:56:01;;;;;;;28.77;11.57;;;-0.90;99.90;;;;;;6162531;23;20044;-91
2022/12/09 07:58:27;;;;;;;25.67;10.45;;;-0.90;99.90;;;;;;6159984;23;20040;-92
2022/12/09 08:00:53;;;;;;;25.50;10.57;;;-0.90;99.90;;;;;;6138508;23;20093;-90
2022/12/09 08:03:19;;;;;;;26.67;12.05;;;-0.90;99.90;;;;;;6184330;23;20029;-92
2022/12/09 08:05:52;;;;;;;26.63;9.52;;;-0.90;99.90;;;;;;6185510;23;20019;-91
2022/12/09 08:08:18;;;;;;;23.27;9.80;;;-0.90;99.90;;;;;;6185645;23;20021;-91
2022/12/09 08:10:45;;;;;;;24.95;9.82;;;-0.90;99.90;;;;;;6158128;23;20087;-91
2022/12/09 08:13:11;;;;;;;24.63;9.98;;;-0.90;99.90;;;;;;6133337;23;20024;-91
2022/12/09 08:15:36;;;;;;;26.45;10.60;;;-0.90;99.90;;;;;;6185445;23;20008;-89
2022/12/09 08:18:02;;;;;;;28.10;11.15;;;-0.90;99.90;;;;;;6183049;23;20017;-93
2022/12/09 08:20:29;;;;;;;22.38;9.63;;;-0.90;99.90;;;;;;6159589;23;20009;-92
2022/12/09 08:22:55;;;;;;;24.92;10.73;;;-0.90;99.90;;;;;;6138641;23;20028;-90
2022/12/09 08:25:21;;;;;;;29.77;11.90;;;-0.80;99.90;;;;;;6183881;23;20020;-88
2022/12/09 08:27:46;;;;;;;25.25;10.82;;;-0.80;99.90;;;;;;6157072;23;20037;-90
2022/12/09 08:30:12;;;;;;;22.27;9.38;;;-0.80;99.90;;;;;;6185246;23;20021;-91
2022/12/09 08:32:38;;;;;;;24.05;9.40;;;-0.80;99.90;;;;;;6187645;23;20013;-90
2022/12/09 08:35:04;;;;;;;23.98;10.18;;;-0.80;99.90;;;;;;6158972;23;20024;-89
2022/12/09 08:37:30;;;;;;;25.67;10.88;;;-0.80;99.90;;;;;;6185458;23;20253;-91
2022/12/09 08:39:55;;;;;;;26.42;9.88;;;-0.70;99.90;;;;;;6181167;23;20068;-86
2022/12/09 08:42:21;;;;;;;23.85;10.18;;;-0.70;99.90;;;;;;6131822;23;20023;-85
2022/12/09 08:44:47;;;;;;;25.90;11.57;;;-0.70;99.90;;;;;;6156026;23;20063;-85
2022/12/09 08:47:12;;;;;;;25.67;11.40;;;-0.70;99.90;;;;;;6182432;23;20009;-87
2022/12/09 08:49:38;;;;;;;25.88;10.13;;;-0.60;99.90;;;;;;6180547;23;20082;-87
2022/12/09 08:52:04;;;;;;;25.23;11.15;;;-0.60;99.90;;;;;;6181219;23;20032;-91
2022/12/09 08:54:29;;;;;;;22.77;9.90;;;-0.60;99.90;;;;;;6185807;23;20048;-90
2022/12/09 08:56:55;;;;;;;25.70;10.10;;;-0.60;99.90;;;;;;6158590;23;20449;-89
2022/12/09 08:59:22;;;;;;;25.75;10.52;;;-0.50;99.90;;;;;;6157379;23;20012;-90
2022/12/09 09:01:48;;;;;;;28.23;11.95;;;-0.40;99.90;;;;;;6185171;23;20389;-91
2022/12/09 09:04:16;;;;;;;32.58;14.27;;;-0.20;99.90;;;;;;6158502;23;20024;-92
2022/12/09 09:06:45;;;;;;;32.60;12.23;;;0.00;99.90;;;;;;6185205;23;20106;-91
2022/12/09 09:09:12;;;;;;;30.60;13.15;;;0.10;99.90;;;;;;6157336;23;20435;-92
2022/12/09 09:11:39;;;;;;;29.30;12.82;;;0.40;99.90;;;;;;6183911;23;20024;-90
2022/12/09 09:14:07;;;;;;;34.42;13.93;;;0.50;99.90;;;;;;6184225;23;20016;-90
2022/12/09 09:16:34;;;;;;;31.92;14.35;;;0.60;99.90;;;;;;6184434;23;20013;-90
2022/12/09 09:19:01;;;;;;;36.22;14.15;;;0.70;99.90;;;;;;6157478;23;20313;-90
2022/12/09 09:21:27;;;;;;;29.35;13.88;;;0.90;99.90;;;;;;6180928;23;20013;-92
2022/12/09 09:23:54;;;;;;;41.70;18.52;;;0.90;99.90;;;;;;6170965;23;20134;-92
2022/12/09 09:26:23;;;;;;;39.28;17.60;;;1.00;99.90;;;;;;6141190;23;20096;-92
2022/12/09 09:28:49;;;;;;;43.72;18.67;;;1.10;99.90;;;;;;6153063;23;20021;-93
2022/12/09 09:31:18;;;;;;;40.40;16.60;;;1.10;99.90;;;;;;6153322;23;20379;-87
2022/12/09 09:33:44;;;;;;;45.90;18.90;;;1.20;99.90;;;;;;6151541;23;20088;-86
2022/12/09 09:36:16;;;;;;;47.58;20.98;;;1.20;99.90;;;;;;6152450;23;20447;-89
2022/12/09 09:38:41;;;;;;;48.20;19.30;;;1.30;99.90;;;;;;6151430;23;20013;-88
2022/12/09 09:41:36;;;;;;;52.85;19.70;;;1.30;99.90;;;;;;6151585;23;20041;-89
2022/12/09 09:44:03;;;;;;;50.63;20.10;;;1.30;99.90;;;;;;6150219;23;20021;-87
2022/12/09 09:46:37;;;;;;;45.92;18.55;;;1.30;99.90;;;;;;6152179;23;20332;-88
2022/12/09 09:49:06;;;;;;;47.70;18.90;;;1.30;99.90;;;;;;6150633;23;20009;-87
2022/12/09 09:51:34;;;;;;;53.20;18.65;;;1.30;99.90;;;;;;6152974;23;20347;-88
2022/12/09 09:53:59;;;;;;;46.33;18.27;;;1.40;99.90;;;;;;6175787;23;20017;-88
2022/12/09 09:56:42;;;;;;;51.83;20.00;;;1.40;99.90;;;;;;6151056;23;20443;-88
2022/12/09 09:59:24;;;;;;;67.72;20.70;;;1.40;99.90;;;;;;6152108;23;20018;-88
2022/12/09 10:02:14;;;;;;;43.42;17.20;;;1.40;99.90;;;;;;6148512;23;20021;-87
2022/12/09 10:05:17;;;;;;;94.20;20.23;;;1.40;99.90;;;;;;6151910;23;20339;-85
2022/12/09 10:07:50;;;;;;;88.75;19.50;;;1.50;99.90;;;;;;6149679;23;20021;-86
2022/12/09 10:10:30;;;;;;;149.73;25.30;;;1.50;99.90;;;;;;6149416;23;20009;-84
2022/12/09 10:13:25;;;;;;;47.80;16.97;;;1.40;99.90;;;;;;6175483;23;20017;-85
2022/12/09 10:16:01;;;;;;;57.33;18.77;;;1.40;99.90;;;;;;6141891;23;20421;-88
2022/12/09 10:18:52;;;;;;;63.42;17.90;;;1.40;99.90;;;;;;6150546;23;20402;-89
2022/12/09 10:21:19;;;;;;;61.63;19.25;;;1.40;99.90;;;;;;6151537;23;20018;-88
2022/12/09 10:23:46;;;;;;;67.00;18.67;;;1.40;99.90;;;;;;6150993;23;20025;-88
2022/12/09 10:26:23;;;;;;;48.55;19.88;;;1.40;99.90;;;;;;6152762;23;20367;-88
2022/12/09 10:28:58;;;;;;;46.13;18.20;;;1.40;99.90;;;;;;6162652;23;20014;-88
2022/12/09 10:31:26;;;;;;;42.63;15.05;;;1.40;99.90;;;;;;6180485;23;20010;-87
2022/12/09 10:33:52;;;;;;;46.22;17.65;;;1.40;99.90;;;;;;6182515;23;20032;-89
2022/12/09 10:36:26;;;;;;;46.97;17.80;;;1.40;99.90;;;;;;6186227;23;20032;-89
2022/12/09 10:38:52;;;;;;;48.05;17.85;;;1.40;99.90;;;;;;6159450;23;20020;-88
2022/12/09 10:44:38;;;;;;;48.42;18.02;;;1.50;99.90;;;;;;6183467;23;20343;-89
2022/12/09 10:47:21;;;;;;;47.22;17.10;;;1.40;99.90;;;;;;6186110;23;20044;-89
2022/12/09 10:49:50;;;;;;;48.53;19.35;;;1.40;99.90;;;;;;6159171;23;20008;-86
2022/12/09 10:52:43;;;;;;;43.20;17.20;;;1.40;99.90;;;;;;6183560;23;20096;-88
2022/12/09 10:55:29;;;;;;;40.30;16.85;;;1.40;99.90;;;;;;6159270;23;20020;-86
2022/12/09 10:58:23;;;;;;;42.45;18.40;;;1.50;99.90;;;;;;6181829;23;20017;-87
2022/12/09 11:01:10;;;;;;;44.85;18.00;;;1.50;99.90;;;;;;6184745;23;20013;-86
2022/12/09 11:03:48;;;;;;;41.05;18.08;;;1.50;99.90;;;;;;6159574;23;20324;-85
2022/12/09 11:06:24;;;;;;;35.60;15.75;;;1.50;99.90;;;;;;6159277;23;20024;-86
2022/12/09 11:08:52;;;;;;;38.95;18.23;;;1.50;99.90;;;;;;6185110;23;20016;-86
2022/12/09 11:11:18;;;;;;;39.67;17.92;;;1.50;99.90;;;;;;6158178;23;20332;-86
2022/12/09 11:13:44;;;;;;;39.38;16.73;;;1.60;99.90;;;;;;6158696;23;20084;-86
2022/12/09 11:16:10;;;;;;;44.53;19.15;;;1.60;99.90;;;;;;6158543;23;20049;-86
2022/12/09 11:18:42;;;;;;;44.10;19.70;;;1.70;99.90;;;;;;6159303;23;20009;-86
2022/12/09 11:21:30;;;;;;;43.95;18.67;;;1.70;99.90;;;;;;6183974;23;20024;-85
2022/12/09 11:23:56;;;;;;;48.78;19.08;;;1.80;99.90;;;;;;6184970;23;20151;-86
2022/12/09 11:26:29;;;;;;;39.90;16.27;;;1.80;99.90;;;;;;6183455;23;20036;-85
2022/12/09 11:29:02;;;;;;;37.35;16.85;;;1.80;99.90;;;;;;6152821;23;20018;-85
2022/12/09 11:31:32;;;;;;;36.35;15.48;;;1.80;99.90;;;;;;6156099;23;20026;-85
2022/12/09 11:34:04;;;;;;;38.85;16.40;;;1.90;99.90;;;;;;6128445;23;20014;-85
2022/12/09 11:36:43;;;;;;;37.90;14.95;;;1.90;99.90;;;;;;6153441;23;20080;-85
2022/12/09 11:39:26;;;;;;;37.47;15.35;;;1.90;99.90;;;;;;6154841;23;20049;-85
2022/12/09 11:42:16;;;;;;;37.65;14.95;;;1.90;99.90;;;;;;6152202;23;20028;-85
2022/12/09 11:44:47;;;;;;;38.55;15.27;;;2.00;99.90;;;;;;6153873;23;20467;-85
2022/12/09 11:47:21;;;;;;;39.83;16.23;;;2.10;99.90;;;;;;6151321;23;20025;-85
2022/12/09 11:49:55;;;;;;;32.92;14.32;;;2.10;99.90;;;;;;6151976;23;20014;-85
2022/12/09 11:52:24;;;;;;;37.53;15.43;;;2.10;99.90;;;;;;6151560;23;20020;-85
2022/12/09 11:55:10;;;;;;;38.67;16.70;;;2.10;99.90;;;;;;6151387;23;20114;-84
2022/12/09 11:57:42;;;;;;;39.25;15.80;;;2.20;99.90;;;;;;6125625;23;20020;-84
2022/12/09 12:00:18;;;;;;;36.30;15.93;;;2.30;99.90;;;;;;6151886;23;20108;-85
2022/12/09 12:02:53;;;;;;;35.33;14.65;;;2.30;99.90;;;;;;6152035;23;20088;-85
2022/12/09 12:05:24;;;;;;;34.35;14.95;;;2.30;99.90;;;;;;6151567;23;20336;-84
2022/12/09 12:07:49;;;;;;;34.88;13.95;;;2.40;99.90;;;;;;6153295;23;20110;-85
2022/12/09 12:10:23;;;;;;;36.05;15.07;;;2.30;99.90;;;;;;6150275;23;20017;-84
2022/12/09 12:13:18;;;;;;;33.33;15.45;;;2.30;99.90;;;;;;6151239;23;20024;-85
2022/12/09 12:15:51;;;;;;;35.83;15.77;;;2.40;99.90;;;;;;6152494;23;20017;-86
2022/12/09 12:18:19;;;;;;;34.60;16.35;;;2.40;99.90;;;;;;6176978;23;20005;-85
2022/12/09 12:21:06;;;;;;;35.58;14.52;;;2.40;99.90;;;;;;6153281;23;20009;-85
2022/12/09 12:23:47;;;;;;;37.50;17.77;;;2.40;99.90;;;;;;6151337;23;20028;-85
2022/12/09 12:26:28;;;;;;;37.70;16.50;;;2.40;99.90;;;;;;6153637;23;20745;-86
2022/12/09 12:29:20;;;;;;;35.95;16.42;;;2.40;99.90;;;;;;6166628;23;20025;-86
2022/12/09 12:31:58;;;;;;;41.22;17.48;;;2.40;99.90;;;;;;6178926;23;20017;-85
2022/12/09 12:34:48;;;;;;;40.08;17.58;;;2.50;99.90;;;;;;6182877;23;20005;-85
2022/12/09 12:37:46;;;;;;;42.53;17.50;;;2.40;99.90;;;;;;6182510;23;20402;-85
2022/12/09 12:40:33;;;;;;;41.55;17.55;;;2.50;99.90;;;;;;6155063;23;20607;-85
2022/12/09 12:46:41;;;;;;;36.53;15.98;;;2.50;99.90;;;;;;6121005;23;20499;-86
2022/12/09 12:49:28;;;;;;;36.83;16.92;;;2.60;99.90;;;;;;6119883;23;20018;-85
2022/12/09 12:52:19;;;;;;;39.60;17.23;;;2.60;99.90;;;;;;6120234;23;20170;-86
2022/12/09 12:55:00;;;;;;;39.38;17.48;;;2.60;99.90;;;;;;6094623;23;20049;-85
2022/12/09 12:57:41;;;;;;;40.35;17.42;;;2.60;99.90;;;;;;6120598;23;20150;-85
2022/12/09 13:00:25;;;;;;;37.58;17.42;;;2.50;99.90;;;;;;6120511;23;20348;-85
2022/12/09 13:03:09;;;;;;;41.78;18.70;;;2.60;99.90;;;;;;6119642;23;20064;-86
2022/12/09 13:05:38;;;;;;;33.60;14.77;;;2.60;99.90;;;;;;6120375;23;20014;-85